CheckWX is a tool to help pilots better visualize weather data.  It is not intended as a substitute for an official pre-flight weather briefing.

16:58:17 UTC

KMPZ METAR
Mount Pleasant Municipal Airport
Mount Pleasant, Iowa, USA
Current

23 mins ago

KMPZ 071635Z AUTO 24010KT 10SM OVC016 20/16 A2977 RMK AO2
Observed
Apr-7 @ 16:35 UTC
Wind
  • 240° at 10 KTS
Visibility
Flight Rules
MVFR
Cloud Levels
  • Overcast at 1,600' AGL
Temperature
20°C / 68°F
Dewpoint
16°C / 61°F
Humidity
78%
Altimeter
29.77" Hg
Pressure
1008.12 hPa
Previous

43 mins ago

KMPZ 071615Z AUTO 25010KT 10SM OVC014 20/16 A2978 RMK AO2
Observed
Apr-7 @ 16:15 UTC
Wind
  • 250° at 10 KTS
Visibility
Flight Rules
MVFR
Cloud Levels
  • Overcast at 1,400' AGL
Temperature
20°C / 68°F
Dewpoint
16°C / 61°F
Humidity
78%
Altimeter
29.78" Hg
Pressure
1008.42 hPa
Previous

1 hour ago

KMPZ 071555Z AUTO 25012KT 10SM OVC014 20/16 A2978 RMK AO2
Observed
Apr-7 @ 15:55 UTC
Wind
  • 250° at 12 KTS
Visibility
Flight Rules
MVFR
Cloud Levels
  • Overcast at 1,400' AGL
Temperature
20°C / 68°F
Dewpoint
16°C / 61°F
Humidity
78%
Altimeter
29.78" Hg
Pressure
1008.42 hPa